Etusivu
METAR-TAF:

METAR-TAF

Lentoasemat :

Asahikawa Air Base, Japani

Leveyspiiri: 43-48N, Pituuspiiri: 142-22E, korkeus merenpinnasta: 115 m

Tämänhetkinen sää

Tämä raportti tehtiin 3 tuntia ja 16 minuuttia sitten, kello 05.02 UTC
Tuuli 7 kn lännestä
Lämpötila -2°C
Kosteus 80%
Ilmanpaine 1026 hPa
Näkyvyys: 7000 m
Muutamia pilviä 500 ft:n korkeudessa
Hajanaisia pilviä 1500 ft:n korkeudessa
Hajonneita pilviä 4000 ft:n korkeudessa
heikkoja lumikuuroja

METAR: RJCA 200502Z 26007KT 7000 -SHSN FEW005 SCT015 BKN040 M02/M05 Q1026 RMK 2ST005 3ST015 5CU040 A3031

Aika: 17:18 (08:18 UTC)


TAF: puuttuu

Säähavainnot ja -ennusteet yli 4000 lentoasemalta (METAR- ja TAF-raportit).

Käytössä olevat sääasemat on merkitty karttaan keltaisilla ja punaisilla pisteillä.

Aseta hiiri pisteen päälle nähdäksesi sääaseman nimen.

Klikkaa sitten nähdäksesi säähavainnot ja -ennusteet.

Kartan vaihtaminen: klikkaa mustalla rastilla varustettuja vihreitä pisteitä, niin voit zoomata sisään; viivalla varustettua vihreää pistettä, niin voit zoomata ulos tai vihreitä nuolia, niin pääset viereisille kartoille.


METAR-TAF: